createdAt,value
2022-07-26T00:02:58.065Z,6.03
2022-07-26T00:06:10.658Z,5.30
2022-07-26T00:09:13.139Z,7.53
2022-07-26T00:12:25.161Z,5.15
2022-07-26T00:15:30.043Z,7.47
2022-07-26T00:18:38.718Z,10.95
2022-07-26T00:21:42.003Z,6.03
2022-07-26T00:24:50.422Z,6.07
2022-07-26T00:28:00.438Z,7.43
2022-07-26T00:35:02.224Z,4.60
2022-07-26T00:38:04.803Z,4.60
2022-07-26T00:41:07.493Z,8.02
2022-07-26T00:44:13.037Z,8.18
2022-07-26T00:47:16.124Z,5.20
2022-07-26T00:50:19.701Z,9.88
2022-07-26T00:53:23.640Z,8.80
2022-07-26T00:56:29.991Z,10.63
2022-07-26T00:59:35.040Z,7.53
2022-07-26T01:02:37.551Z,9.27
2022-07-26T01:05:40.488Z,8.52
2022-07-26T01:08:42.784Z,8.25
2022-07-26T01:11:50.991Z,7.95
2022-07-26T01:14:53.368Z,8.65
2022-07-26T01:17:55.204Z,8.88
2022-07-26T01:20:59.864Z,10.10
2022-07-26T01:24:05.106Z,6.90
2022-07-26T01:27:10.662Z,8.77
2022-07-26T01:30:15.669Z,11.10
2022-07-26T01:33:18.574Z,11.77
2022-07-26T01:36:21.454Z,6.75
2022-07-26T01:39:24.055Z,14.13
2022-07-26T01:42:25.898Z,8.68
2022-07-26T01:45:28.619Z,9.48
2022-07-26T01:48:31.375Z,8.45
2022-07-26T01:51:33.740Z,13.70
2022-07-26T01:54:35.714Z,6.57
2022-07-26T01:57:37.573Z,8.63
2022-07-26T02:00:39.567Z,10.50
2022-07-26T02:03:42.153Z,7.88
2022-07-26T02:06:44.606Z,12.10
2022-07-26T02:09:51.333Z,9.75
2022-07-26T02:12:54.924Z,12.93
2022-07-26T02:15:59.229Z,6.70
2022-07-26T02:19:01.548Z,10.35
2022-07-26T02:22:04.334Z,8.00
2022-07-26T02:25:07.247Z,12.30
2022-07-26T02:28:09.842Z,11.43
2022-07-26T02:31:12.422Z,10.35
2022-07-26T02:34:18.151Z,7.57
2022-07-26T02:37:20.500Z,7.50
2022-07-26T02:40:22.931Z,8.45
2022-07-26T02:43:25.356Z,5.25
2022-07-26T02:46:27.706Z,9.75
2022-07-26T02:49:29.957Z,12.10
2022-07-26T02:52:32.371Z,5.50
2022-07-26T02:55:34.650Z,5.20
2022-07-26T02:58:37.949Z,9.65
2022-07-26T03:01:39.856Z,10.32
2022-07-26T03:04:42.040Z,8.55
2022-07-26T03:07:45.698Z,10.75
2022-07-26T03:10:47.359Z,10.23
2022-07-26T03:13:49.054Z,9.05
2022-07-26T03:16:50.779Z,14.20
2022-07-26T03:19:52.679Z,10.90
2022-07-26T03:22:54.441Z,15.82
2022-07-26T03:25:56.306Z,12.73
2022-07-26T03:28:57.963Z,11.05
2022-07-26T03:31:59.693Z,8.82
2022-07-26T03:35:01.384Z,11.35
2022-07-26T03:38:03.061Z,8.43
2022-07-26T03:41:04.805Z,12.00
2022-07-26T03:44:06.638Z,15.77
2022-07-26T03:47:09.154Z,12.70
2022-07-26T03:50:11.443Z,13.27
2022-07-26T03:53:13.103Z,9.20
2022-07-26T03:56:34.344Z,10.15
2022-07-26T03:59:36.338Z,6.28
2022-07-26T04:02:38.218Z,9.30
2022-07-26T04:05:40.211Z,8.85
2022-07-26T04:08:50.208Z,12.80
2022-07-26T04:11:52.022Z,13.63
2022-07-26T04:14:53.638Z,20.10
2022-07-26T04:17:55.853Z,17.40
2022-07-26T04:20:57.820Z,11.88
2022-07-26T04:23:59.587Z,11.55
2022-07-26T04:27:01.242Z,11.77
2022-07-26T04:30:03.885Z,11.90
2022-07-26T04:33:06.645Z,9.07
2022-07-26T04:36:08.676Z,16.80
2022-07-26T04:39:11.159Z,11.88
2022-07-26T04:42:12.879Z,7.93
2022-07-26T04:45:14.782Z,13.80
2022-07-26T04:48:17.084Z,8.85
2022-07-26T04:51:18.669Z,14.73
2022-07-26T04:54:22.725Z,13.50
2022-07-26T04:57:24.315Z,15.15
2022-07-26T05:00:26.018Z,12.38
2022-07-26T05:03:27.709Z,11.98
2022-07-26T05:06:29.500Z,10.38
2022-07-26T05:09:31.497Z,13.95
2022-07-26T05:12:33.107Z,13.18
2022-07-26T05:15:36.699Z,10.80
2022-07-26T05:18:43.953Z,13.18
2022-07-26T05:21:51.456Z,16.25
2022-07-26T05:24:53.047Z,10.73
2022-07-26T05:27:54.776Z,15.18
2022-07-26T05:30:56.420Z,13.20
2022-07-26T05:33:58.020Z,14.70
2022-07-26T05:36:59.676Z,14.93
2022-07-26T05:40:01.534Z,12.38
2022-07-26T05:43:04.606Z,21.25
2022-07-26T05:46:09.569Z,31.40
2022-07-26T05:49:11.531Z,14.95
2022-07-26T05:52:13.189Z,13.45
2022-07-26T05:55:15.002Z,18.23
2022-07-26T05:58:16.631Z,13.10
2022-07-26T06:01:18.300Z,15.50
2022-07-26T06:04:21.241Z,13.85
2022-07-26T06:07:26.595Z,12.30
2022-07-26T06:10:28.192Z,11.07
2022-07-26T06:13:30.095Z,17.17
2022-07-26T06:16:31.757Z,22.63
2022-07-26T06:19:33.625Z,19.85
2022-07-26T06:22:35.261Z,18.38
2022-07-26T06:25:37.296Z,16.83
2022-07-26T06:28:39.793Z,18.50
2022-07-26T06:31:41.738Z,18.48
2022-07-26T06:34:43.354Z,21.35
2022-07-26T06:37:45.038Z,20.45
2022-07-26T06:40:46.675Z,12.75
2022-07-26T06:43:48.377Z,26.38
2022-07-26T06:46:50.128Z,20.85
2022-07-26T06:49:51.768Z,16.05
2022-07-26T06:52:53.403Z,13.80
2022-07-26T06:55:55.053Z,19.63
2022-07-26T06:58:56.658Z,19.65
2022-07-26T07:02:00.373Z,23.30
2022-07-26T07:05:03.237Z,18.38
2022-07-26T07:08:07.289Z,23.75
2022-07-26T07:11:09.053Z,19.75
2022-07-26T07:14:10.870Z,20.70
2022-07-26T07:17:17.132Z,21.80
2022-07-26T07:20:21.627Z,23.88
2022-07-26T07:23:23.320Z,22.40
2022-07-26T07:26:25.154Z,24.13
2022-07-26T07:29:26.878Z,21.85
2022-07-26T07:32:30.961Z,24.48
2022-07-26T07:35:32.904Z,18.52
2022-07-26T07:38:34.746Z,17.05
2022-07-26T07:41:40.745Z,22.05
2022-07-26T07:44:42.404Z,13.90
2022-07-26T07:47:44.038Z,18.77
2022-07-26T07:50:45.956Z,19.42
2022-07-26T07:53:56.344Z,19.58
2022-07-26T07:56:59.525Z,19.35
2022-07-26T08:00:03.740Z,13.80
2022-07-26T08:03:05.538Z,12.15
2022-07-26T08:06:10.784Z,18.77
2022-07-26T08:09:13.384Z,17.80
2022-07-26T08:12:15.247Z,17.20
2022-07-26T08:15:17.023Z,20.35
2022-07-26T08:18:22.864Z,14.50
2022-07-26T08:21:28.947Z,15.15
2022-07-26T08:24:30.962Z,16.38
2022-07-26T08:27:40.412Z,16.98
2022-07-26T08:30:42.960Z,18.80
2022-07-26T08:33:46.401Z,11.52
2022-07-26T08:37:14.143Z,16.75
2022-07-26T08:40:10.241Z,13.23
2022-07-26T08:43:11.891Z,9.38
2022-07-26T08:46:14.234Z,9.40
2022-07-26T08:49:15.930Z,19.17
2022-07-26T08:52:17.701Z,14.32
2022-07-26T08:55:20.995Z,11.65
2022-07-26T08:58:22.604Z,10.15
2022-07-26T09:01:24.417Z,10.32
2022-07-26T09:04:44.464Z,10.43
2022-07-26T09:10:48.069Z,12.98
2022-07-26T09:13:51.894Z,10.55
2022-07-26T09:16:58.903Z,13.70
2022-07-26T09:20:24.264Z,10.95
2022-07-26T09:23:39.699Z,13.02
2022-07-26T09:26:54.430Z,14.77
2022-07-26T09:29:57.296Z,18.42
2022-07-26T09:33:07.189Z,11.63
2022-07-26T09:36:09.232Z,16.52
2022-07-26T09:39:11.234Z,14.10
2022-07-26T09:42:29.666Z,17.98
2022-07-26T09:45:34.040Z,14.73
2022-07-26T09:49:08.330Z,16.45
2022-07-26T09:51:59.884Z,12.30
2022-07-26T09:55:05.497Z,12.55
2022-07-26T09:58:07.652Z,14.73
2022-07-26T10:01:09.292Z,17.65
2022-07-26T10:04:12.899Z,18.15
2022-07-26T10:07:15.766Z,14.93
2022-07-26T10:10:43.958Z,16.40
2022-07-26T10:13:45.557Z,7.18
2022-07-26T10:16:47.178Z,11.32
2022-07-26T10:19:49.154Z,8.95
2022-07-26T10:22:50.818Z,13.27
2022-07-26T10:25:52.620Z,16.00
2022-07-26T10:28:54.232Z,16.00
2022-07-26T10:31:55.765Z,8.25
2022-07-26T10:34:57.485Z,5.93
2022-07-26T10:38:03.458Z,4.65
2022-07-26T10:41:07.766Z,6.18
2022-07-26T10:44:14.315Z,5.93
2022-07-26T10:47:18.605Z,5.00
2022-07-26T10:50:32.481Z,4.43
2022-07-26T10:53:34.530Z,7.72
2022-07-26T10:56:36.546Z,5.95
2022-07-26T10:59:55.337Z,5.70
2022-07-26T11:02:59.115Z,2.83
2022-07-26T11:06:09.976Z,6.55
2022-07-26T11:09:12.549Z,5.47
2022-07-26T11:12:21.583Z,2.33
2022-07-26T11:15:23.229Z,3.08
2022-07-26T11:18:35.053Z,4.25
2022-07-26T11:21:36.766Z,4.95
2022-07-26T11:24:41.062Z,3.28
2022-07-26T11:28:02.290Z,4.63
2022-07-26T11:31:08.783Z,2.92
2022-07-26T11:34:19.723Z,3.67
2022-07-26T11:37:21.294Z,1.90
2022-07-26T11:40:45.967Z,1.92
2022-07-26T11:43:48.945Z,1.98
2022-07-26T11:46:51.485Z,5.53
2022-07-26T11:53:22.749Z,1.60
2022-07-26T11:56:24.343Z,0.50
2022-07-26T11:59:29.301Z,0.77
2022-07-26T12:02:31.374Z,1.35
2022-07-26T12:05:33.247Z,0.75
2022-07-26T12:08:56.247Z,0.98
2022-07-26T12:11:58.649Z,1.40
2022-07-26T12:15:05.673Z,1.02
2022-07-26T12:18:08.664Z,2.50
2022-07-26T12:21:11.165Z,0.93
2022-07-26T12:24:33.620Z,2.85
2022-07-26T12:27:46.254Z,1.08
2022-07-26T12:30:47.910Z,1.80
2022-07-26T12:33:50.315Z,0.68
2022-07-26T12:36:51.919Z,1.13
2022-07-26T12:40:21.221Z,1.70
2022-07-26T12:43:23.085Z,1.77
2022-07-26T12:46:24.801Z,2.42
2022-07-26T12:49:26.511Z,4.88
2022-07-26T12:52:28.275Z,1.00
2022-07-26T12:55:29.964Z,1.20
2022-07-26T12:58:31.577Z,0.98
2022-07-26T13:01:33.410Z,1.50
2022-07-26T13:04:35.400Z,4.35
2022-07-26T13:07:38.077Z,1.65
2022-07-26T13:10:41.643Z,2.05
2022-07-26T13:13:43.283Z,1.85
2022-07-26T13:16:45.051Z,1.23
2022-07-26T13:19:46.740Z,1.75
2022-07-26T13:22:48.415Z,1.50
2022-07-26T13:25:50.055Z,0.70
2022-07-26T13:28:51.789Z,1.95
2022-07-26T13:31:56.276Z,1.42
2022-07-26T13:34:57.909Z,1.27
2022-07-26T13:37:59.472Z,1.35
2022-07-26T13:41:04.325Z,0.82
2022-07-26T13:44:06.234Z,3.00
2022-07-26T13:47:07.838Z,2.00
2022-07-26T13:50:09.996Z,1.60
2022-07-26T13:53:11.772Z,6.18
2022-07-26T13:56:13.312Z,1.05
2022-07-26T13:59:15.054Z,2.30
2022-07-26T14:02:16.788Z,2.88
2022-07-26T14:05:18.838Z,1.85
2022-07-26T14:08:20.641Z,3.67
2022-07-26T14:11:23.389Z,1.80
2022-07-26T14:14:27.889Z,4.75
2022-07-26T14:17:36.315Z,2.42
2022-07-26T14:20:37.899Z,4.90
2022-07-26T14:23:39.854Z,2.65
2022-07-26T14:26:44.241Z,1.98
2022-07-26T14:29:50.700Z,7.22
2022-07-26T14:32:52.371Z,2.92
2022-07-26T14:35:53.962Z,3.22
2022-07-26T14:38:55.867Z,4.03
2022-07-26T14:41:58.293Z,3.33
2022-07-26T14:45:02.325Z,3.97
2022-07-26T14:48:04.247Z,3.20
2022-07-26T14:51:09.937Z,7.75
2022-07-26T14:54:15.631Z,2.22
2022-07-26T14:57:19.880Z,3.40
2022-07-26T15:00:44.695Z,3.38
2022-07-26T15:03:49.959Z,4.32
2022-07-26T15:06:51.673Z,2.55
2022-07-26T15:09:53.236Z,3.08
2022-07-26T15:13:00.181Z,5.03
2022-07-26T15:16:01.922Z,2.13
2022-07-26T15:19:03.659Z,1.65
2022-07-26T15:22:05.306Z,0.90
2022-07-26T15:25:07.460Z,0.95
2022-07-26T15:28:09.125Z,1.80
2022-07-26T15:31:11.138Z,3.40
2022-07-26T15:34:12.997Z,2.20
2022-07-26T15:37:14.876Z,0.80
2022-07-26T15:40:16.560Z,0.77
2022-07-26T15:43:21.595Z,0.65
2022-07-26T15:46:25.647Z,7.75
2022-07-26T15:49:28.219Z,1.80
2022-07-26T15:52:29.833Z,3.60
2022-07-26T15:55:31.532Z,4.80
2022-07-26T15:58:33.377Z,3.00
2022-07-26T16:01:36.257Z,3.72
2022-07-26T16:04:38.070Z,4.63
2022-07-26T16:07:41.786Z,4.45
2022-07-26T16:10:43.573Z,2.95
2022-07-26T16:13:45.163Z,4.20
2022-07-26T16:16:46.811Z,5.35
2022-07-26T16:19:48.775Z,6.20
2022-07-26T16:22:50.515Z,3.45
2022-07-26T16:25:52.205Z,4.20
2022-07-26T16:28:54.331Z,3.72
2022-07-26T16:31:56.113Z,4.47
2022-07-26T16:34:58.148Z,7.65
2022-07-26T16:38:00.029Z,3.85
2022-07-26T16:41:01.764Z,5.00
2022-07-26T16:44:03.906Z,5.25
2022-07-26T16:47:05.839Z,6.63
2022-07-26T16:50:07.869Z,8.30
2022-07-26T16:53:13.192Z,7.65
2022-07-26T16:56:15.127Z,5.20
2022-07-26T16:59:17.669Z,8.25
2022-07-26T17:02:19.957Z,7.32
2022-07-26T17:05:21.676Z,7.78
2022-07-26T17:08:24.598Z,5.50
2022-07-26T17:11:26.267Z,5.07
2022-07-26T17:14:27.821Z,12.07
2022-07-26T17:17:29.431Z,4.68
2022-07-26T17:20:31.097Z,9.75
2022-07-26T17:23:32.834Z,9.10
2022-07-26T17:26:36.451Z,7.72
2022-07-26T17:29:39.158Z,10.43
2022-07-26T17:32:41.208Z,15.27
2022-07-26T17:35:43.601Z,10.18
2022-07-26T17:38:45.209Z,10.57
2022-07-26T17:41:49.153Z,8.00
2022-07-26T17:44:51.457Z,9.32
2022-07-26T17:47:53.012Z,9.82
2022-07-26T17:50:54.667Z,6.10
2022-07-26T17:53:56.266Z,6.03
2022-07-26T17:56:57.827Z,8.65
2022-07-26T18:00:04.419Z,11.05
2022-07-26T18:03:07.843Z,10.75
2022-07-26T18:06:09.653Z,5.80
2022-07-26T18:09:12.324Z,9.10
2022-07-26T18:12:15.778Z,9.02
2022-07-26T18:15:17.392Z,7.95
2022-07-26T18:18:19.855Z,9.05
2022-07-26T18:21:21.459Z,8.95
2022-07-26T18:24:23.037Z,14.63
2022-07-26T18:27:27.998Z,10.93
2022-07-26T18:30:30.955Z,7.78
2022-07-26T18:33:32.623Z,8.38
2022-07-26T18:36:34.801Z,8.52
2022-07-26T18:39:36.457Z,9.57
2022-07-26T18:42:38.147Z,8.30
2022-07-26T18:45:40.076Z,10.57
2022-07-26T18:48:41.845Z,11.70
2022-07-26T18:51:44.703Z,9.55
2022-07-26T18:54:50.209Z,8.25
2022-07-26T18:57:53.569Z,9.15
2022-07-26T19:00:55.191Z,10.10
2022-07-26T19:03:57.049Z,9.23
2022-07-26T19:06:58.688Z,8.27
2022-07-26T19:10:00.319Z,11.15
2022-07-26T19:13:02.088Z,10.05
2022-07-26T19:16:03.849Z,8.32
2022-07-26T19:19:05.534Z,12.32
2022-07-26T19:22:07.347Z,8.88
2022-07-26T19:25:10.526Z,14.57
2022-07-26T19:28:12.391Z,6.85
2022-07-26T19:31:14.166Z,11.75
2022-07-26T19:34:16.011Z,8.35
2022-07-26T19:37:25.167Z,9.38
2022-07-26T19:40:26.948Z,9.57
2022-07-26T19:43:28.939Z,7.50
2022-07-26T19:46:30.675Z,8.38
2022-07-26T19:49:32.410Z,13.20
2022-07-26T19:52:34.357Z,12.63
2022-07-26T19:55:38.280Z,9.30
2022-07-26T19:58:40.155Z,9.95
2022-07-26T20:01:42.145Z,9.05
2022-07-26T20:04:46.233Z,6.80
2022-07-26T20:07:49.844Z,11.32
2022-07-26T20:10:51.851Z,7.30
2022-07-26T20:13:55.207Z,6.13
2022-07-26T20:16:58.017Z,8.75
2022-07-26T20:19:59.743Z,8.35
2022-07-26T20:23:03.450Z,6.85
2022-07-26T20:26:05.213Z,10.50
2022-07-26T20:29:18.652Z,6.57
2022-07-26T20:32:30.480Z,8.82
2022-07-26T20:35:38.565Z,9.65
2022-07-26T20:38:51.369Z,4.07
2022-07-26T20:41:54.902Z,8.07
2022-07-26T20:45:24.156Z,12.10
2022-07-26T20:48:33.422Z,11.48
2022-07-26T20:51:36.940Z,7.88
2022-07-26T20:54:43.339Z,9.45
2022-07-26T20:58:00.337Z,8.48
2022-07-26T21:01:05.730Z,6.30
2022-07-26T21:08:58.102Z,14.90
2022-07-26T21:12:01.357Z,7.18
2022-07-26T21:15:04.904Z,10.27
2022-07-26T21:18:13.470Z,11.25
2022-07-26T21:21:21.430Z,7.57
2022-07-26T21:24:30.113Z,8.75
2022-07-26T21:27:32.298Z,8.25
2022-07-26T21:30:35.223Z,6.90
2022-07-26T21:33:40.166Z,10.40
2022-07-26T21:36:43.257Z,10.10
2022-07-26T21:39:45.071Z,7.75
2022-07-26T21:42:51.737Z,7.30
2022-07-26T21:45:54.535Z,7.72
2022-07-26T21:48:58.034Z,6.95
2022-07-26T21:51:59.947Z,8.35
2022-07-26T21:55:01.653Z,9.90
2022-07-26T21:58:03.744Z,5.88
2022-07-26T22:01:11.016Z,11.55
2022-07-26T22:04:12.991Z,6.03
2022-07-26T22:07:14.598Z,7.35
2022-07-26T22:10:16.449Z,5.05
2022-07-26T22:13:18.610Z,4.65
2022-07-26T22:16:20.210Z,9.52
2022-07-26T22:19:21.834Z,11.05
2022-07-26T22:22:23.445Z,8.73
2022-07-26T22:25:25.962Z,8.07
2022-07-26T22:28:28.307Z,11.45
2022-07-26T22:31:30.013Z,6.40
2022-07-26T22:34:31.668Z,6.75
2022-07-26T22:37:33.318Z,10.18
2022-07-26T22:40:36.072Z,5.32
2022-07-26T22:43:38.063Z,8.40
2022-07-26T22:46:39.668Z,9.13
2022-07-26T22:49:41.302Z,11.10
2022-07-26T22:52:43.033Z,11.25
2022-07-26T22:55:44.724Z,7.88
2022-07-26T22:58:46.351Z,8.90
2022-07-26T23:01:47.968Z,9.23
2022-07-26T23:04:49.613Z,9.93
2022-07-26T23:07:51.529Z,10.48
2022-07-26T23:10:53.309Z,7.78
2022-07-26T23:13:59.001Z,9.77
2022-07-26T23:17:00.950Z,6.55
2022-07-26T23:20:04.040Z,4.43
2022-07-26T23:23:05.648Z,8.60
2022-07-26T23:26:07.493Z,8.45
2022-07-26T23:29:09.635Z,7.30
2022-07-26T23:32:11.482Z,10.48
2022-07-26T23:35:13.104Z,4.35
2022-07-26T23:38:14.734Z,6.43
2022-07-26T23:41:16.662Z,8.10
2022-07-26T23:44:18.628Z,8.13
2022-07-26T23:47:20.216Z,11.45
2022-07-26T23:50:24.113Z,4.57
2022-07-26T23:53:26.708Z,5.82
2022-07-26T23:56:28.813Z,8.38
2022-07-26T23:59:30.409Z,7.00
